createdAt,value
2023-03-16T00:01:23.871Z,4.20
2023-03-16T00:03:51.224Z,4.20
2023-03-16T00:06:18.504Z,4.20
2023-03-16T00:08:46.622Z,4.20
2023-03-16T00:11:14.029Z,4.20
2023-03-16T00:13:42.801Z,4.20
2023-03-16T00:16:10.203Z,4.20
2023-03-16T00:18:38.885Z,4.10
2023-03-16T00:21:06.714Z,4.10
2023-03-16T00:23:37.734Z,4.10
2023-03-16T00:26:06.805Z,4.10
2023-03-16T00:28:37.237Z,4.10
2023-03-16T00:31:06.054Z,4.10
2023-03-16T00:33:35.019Z,4.10
2023-03-16T00:36:02.855Z,4.20
2023-03-16T00:38:37.252Z,4.20
2023-03-16T00:41:06.133Z,4.20
2023-03-16T00:43:40.797Z,4.20
2023-03-16T00:46:10.231Z,4.20
2023-03-16T00:48:39.666Z,4.10
2023-03-16T00:51:08.875Z,4.10
2023-03-16T00:53:36.655Z,4.10
2023-03-16T00:56:04.695Z,4.00
2023-03-16T00:58:35.887Z,4.00
2023-03-16T01:01:08.245Z,4.00
2023-03-16T01:03:35.852Z,4.00
2023-03-16T01:06:17.113Z,4.00
2023-03-16T01:08:44.610Z,3.90
2023-03-16T01:11:13.719Z,3.90
2023-03-16T01:13:41.018Z,3.80
2023-03-16T01:16:09.792Z,3.80
2023-03-16T01:18:37.187Z,3.80
2023-03-16T01:21:06.020Z,3.80
2023-03-16T01:23:35.630Z,3.70
2023-03-16T01:26:02.985Z,3.70
2023-03-16T01:28:31.842Z,3.70
2023-03-16T01:31:05.765Z,3.80
2023-03-16T01:33:34.686Z,3.80
2023-03-16T01:36:11.110Z,3.70
2023-03-16T01:38:45.020Z,3.70
2023-03-16T01:41:12.667Z,3.70
2023-03-16T01:43:40.245Z,3.70
2023-03-16T01:46:14.311Z,3.70
2023-03-16T01:48:56.971Z,3.60
2023-03-16T01:51:32.031Z,3.70
2023-03-16T01:54:14.658Z,3.70
2023-03-16T01:56:49.320Z,3.70
2023-03-16T01:59:16.997Z,3.70
2023-03-16T02:01:46.658Z,3.70
2023-03-16T02:04:16.943Z,3.80
2023-03-16T02:06:44.604Z,3.80
2023-03-16T02:09:12.130Z,3.80
2023-03-16T02:11:39.671Z,3.80
2023-03-16T02:14:12.757Z,3.80
2023-03-16T02:16:40.985Z,3.80
2023-03-16T02:19:15.325Z,3.90
2023-03-16T02:22:15.286Z,3.80
2023-03-16T02:24:42.721Z,3.90
2023-03-16T02:27:14.061Z,3.90
2023-03-16T02:30:01.394Z,3.80
2023-03-16T02:32:33.523Z,3.80
2023-03-16T02:35:02.194Z,3.70
2023-03-16T02:37:30.083Z,3.70
2023-03-16T02:39:57.415Z,3.60
2023-03-16T02:42:25.479Z,3.60
2023-03-16T02:44:57.474Z,3.50
2023-03-16T02:47:41.784Z,3.50
2023-03-16T02:50:10.494Z,3.60
2023-03-16T02:52:38.003Z,3.60
2023-03-16T02:55:06.056Z,3.60
2023-03-16T02:57:33.428Z,3.60
2023-03-16T03:00:12.327Z,3.50
2023-03-16T03:02:40.504Z,3.50
2023-03-16T03:05:08.110Z,3.50
2023-03-16T03:07:35.952Z,3.50
2023-03-16T03:10:06.508Z,3.50
2023-03-16T03:12:34.274Z,3.50
2023-03-16T03:15:04.314Z,3.40
2023-03-16T03:17:38.869Z,3.40
2023-03-16T03:20:13.677Z,3.40
2023-03-16T03:22:41.052Z,3.40
2023-03-16T03:25:09.890Z,3.50
2023-03-16T03:27:37.528Z,3.50
2023-03-16T03:30:13.134Z,3.50
2023-03-16T03:32:41.458Z,3.40
2023-03-16T03:35:09.018Z,3.40
2023-03-16T03:37:36.403Z,3.30
2023-03-16T03:40:11.792Z,3.30
2023-03-16T03:42:40.482Z,3.20
2023-03-16T03:45:08.574Z,3.20
2023-03-16T03:47:36.796Z,3.20
2023-03-16T03:50:06.674Z,3.10
2023-03-16T03:52:41.412Z,3.00
2023-03-16T03:55:09.483Z,3.00
2023-03-16T03:57:36.788Z,2.90
2023-03-16T04:00:09.430Z,3.00
2023-03-16T04:02:43.946Z,2.90
2023-03-16T04:05:20.183Z,2.90
2023-03-16T04:07:55.061Z,2.80
2023-03-16T04:10:32.266Z,2.80
2023-03-16T04:13:00.995Z,2.80
2023-03-16T04:15:33.086Z,2.80
2023-03-16T04:18:22.253Z,2.80
2023-03-16T04:20:49.704Z,2.70
2023-03-16T04:23:21.179Z,2.70
2023-03-16T04:25:50.201Z,2.70
2023-03-16T04:28:19.653Z,2.70
2023-03-16T04:30:54.555Z,2.70
2023-03-16T04:33:27.953Z,2.70
2023-03-16T04:35:55.510Z,2.70
2023-03-16T04:38:23.770Z,2.70
2023-03-16T04:40:56.684Z,2.80
2023-03-16T04:43:27.916Z,2.80
2023-03-16T04:46:03.772Z,2.80
2023-03-16T04:48:34.651Z,2.80
2023-03-16T04:51:03.933Z,2.70
2023-03-16T04:53:33.662Z,2.80
2023-03-16T04:56:08.202Z,2.80
2023-03-16T04:58:36.366Z,2.80
2023-03-16T05:01:05.797Z,2.70
2023-03-16T05:03:34.841Z,2.70
2023-03-16T05:06:05.241Z,2.70
2023-03-16T05:08:34.493Z,2.70
2023-03-16T05:11:01.912Z,2.70
2023-03-16T05:13:33.730Z,2.80
2023-03-16T05:16:01.847Z,2.80
2023-03-16T05:18:33.388Z,2.80
2023-03-16T05:21:00.761Z,2.80
2023-03-16T05:23:36.959Z,2.80
2023-03-16T05:26:04.921Z,2.90
2023-03-16T05:28:36.853Z,2.90
2023-03-16T05:31:12.036Z,2.90
2023-03-16T05:33:44.660Z,3.00
2023-03-16T05:36:17.535Z,3.00
2023-03-16T05:38:47.816Z,2.90
2023-03-16T05:41:24.561Z,2.90
2023-03-16T05:44:05.706Z,2.90
2023-03-16T05:46:50.637Z,2.90
2023-03-16T05:49:18.179Z,2.90
2023-03-16T05:51:45.577Z,2.90
2023-03-16T05:54:13.970Z,2.90
2023-03-16T05:56:46.232Z,3.00
2023-03-16T05:59:15.948Z,3.00
2023-03-16T06:01:43.658Z,3.00
2023-03-16T06:04:11.502Z,3.00
2023-03-16T06:06:41.349Z,3.00
2023-03-16T06:09:18.936Z,3.00
2023-03-16T06:11:46.557Z,3.00
2023-03-16T06:14:16.183Z,3.00
2023-03-16T06:16:44.396Z,3.10
2023-03-16T06:19:12.014Z,3.20
2023-03-16T06:21:39.526Z,3.20
2023-03-16T06:24:11.334Z,3.20
2023-03-16T06:26:38.834Z,3.20
2023-03-16T06:29:08.807Z,3.20
2023-03-16T06:31:38.327Z,3.30
2023-03-16T06:34:06.629Z,3.30
2023-03-16T06:36:34.270Z,3.40
2023-03-16T06:39:04.994Z,3.40
2023-03-16T06:41:38.046Z,3.50
2023-03-16T06:44:06.204Z,3.50
2023-03-16T06:46:37.884Z,3.50
2023-03-16T06:49:05.258Z,3.50
2023-03-16T06:51:33.440Z,3.60
2023-03-16T06:54:01.395Z,3.60
2023-03-16T06:56:29.053Z,3.60
2023-03-16T06:58:56.653Z,3.60
2023-03-16T07:01:24.174Z,3.60
2023-03-16T07:03:51.627Z,3.60
2023-03-16T07:06:26.891Z,3.60
2023-03-16T07:08:54.710Z,3.60
2023-03-16T07:11:23.535Z,3.60
2023-03-16T07:13:51.799Z,3.60
2023-03-16T07:16:22.027Z,3.60
2023-03-16T07:18:50.000Z,3.70
2023-03-16T07:21:19.932Z,3.70
2023-03-16T07:23:47.999Z,3.60
2023-03-16T07:26:19.895Z,3.60
2023-03-16T07:28:57.573Z,3.60
2023-03-16T07:31:25.495Z,3.60
2023-03-16T07:33:54.045Z,3.70
2023-03-16T07:36:31.485Z,3.70
2023-03-16T07:39:01.417Z,3.80
2023-03-16T07:41:30.087Z,3.90
2023-03-16T07:44:14.357Z,3.90
2023-03-16T07:46:41.659Z,4.00
2023-03-16T07:49:10.728Z,4.00
2023-03-16T07:51:39.367Z,3.90
2023-03-16T07:54:08.466Z,3.90
2023-03-16T07:56:48.308Z,3.90
2023-03-16T07:59:26.249Z,3.90
2023-03-16T08:01:53.605Z,4.00
2023-03-16T08:04:22.351Z,4.00
2023-03-16T08:07:00.644Z,4.10
2023-03-16T08:09:35.896Z,4.10
2023-03-16T08:12:06.141Z,4.20
2023-03-16T08:14:35.679Z,4.30
2023-03-16T08:17:16.862Z,4.40
2023-03-16T08:19:46.072Z,4.40
2023-03-16T08:22:13.465Z,4.40
2023-03-16T08:24:44.579Z,4.40
2023-03-16T08:27:13.563Z,4.50
2023-03-16T08:29:44.651Z,4.50
2023-03-16T08:32:15.810Z,4.60
2023-03-16T08:34:45.898Z,4.70
2023-03-16T08:37:14.211Z,4.90
2023-03-16T08:39:42.179Z,4.90
2023-03-16T08:42:15.257Z,4.90
2023-03-16T08:44:47.806Z,4.90
2023-03-16T08:47:16.088Z,5.00
2023-03-16T08:49:44.918Z,4.90
2023-03-16T08:52:15.918Z,4.90
2023-03-16T08:54:59.772Z,4.90
2023-03-16T08:57:29.185Z,4.90
2023-03-16T08:59:56.519Z,4.90
2023-03-16T09:02:24.952Z,5.00
2023-03-16T09:04:52.790Z,5.00
2023-03-16T09:07:20.530Z,5.00
2023-03-16T09:09:47.982Z,5.10
2023-03-16T09:12:15.379Z,5.10
2023-03-16T09:14:42.700Z,5.20
2023-03-16T09:17:11.749Z,5.20
2023-03-16T09:19:58.802Z,5.20
2023-03-16T09:22:26.610Z,5.10
2023-03-16T09:24:54.003Z,5.10
2023-03-16T09:27:22.481Z,5.10
2023-03-16T09:29:53.016Z,5.00
2023-03-16T09:32:20.494Z,5.00
2023-03-16T09:34:47.972Z,5.10
2023-03-16T09:37:16.361Z,5.20
2023-03-16T09:39:43.839Z,5.30
2023-03-16T09:42:24.085Z,5.50
2023-03-16T09:45:15.678Z,5.60
2023-03-16T09:47:43.613Z,5.60
2023-03-16T09:50:17.316Z,5.70
2023-03-16T09:52:55.401Z,5.70
2023-03-16T09:55:33.482Z,5.80
2023-03-16T09:58:01.437Z,5.90
2023-03-16T10:00:43.674Z,5.90
2023-03-16T10:03:34.639Z,5.90
2023-03-16T10:06:03.947Z,5.90
2023-03-16T10:08:38.014Z,5.90
2023-03-16T10:11:18.196Z,6.00
2023-03-16T10:13:53.848Z,6.10
2023-03-16T10:16:34.401Z,6.20
2023-03-16T10:19:14.449Z,6.20
2023-03-16T10:21:41.880Z,6.30
2023-03-16T10:24:25.300Z,6.40
2023-03-16T10:27:00.090Z,6.50
2023-03-16T10:29:29.676Z,6.60
2023-03-16T10:32:02.444Z,6.80
2023-03-16T10:34:30.666Z,6.90
2023-03-16T10:36:58.377Z,7.00
2023-03-16T10:39:26.503Z,7.00
2023-03-16T10:41:57.896Z,7.10
2023-03-16T10:44:26.561Z,7.20
2023-03-16T10:47:05.374Z,7.20
2023-03-16T10:49:41.932Z,7.30
2023-03-16T10:52:13.517Z,7.50
2023-03-16T10:54:41.171Z,7.50
2023-03-16T10:57:27.541Z,7.40
2023-03-16T10:59:56.718Z,7.50
2023-03-16T11:02:30.402Z,7.60
2023-03-16T11:04:57.933Z,7.50
2023-03-16T11:07:25.617Z,7.60
2023-03-16T11:09:54.053Z,7.70
2023-03-16T11:12:26.591Z,7.70
2023-03-16T11:14:54.732Z,7.70
2023-03-16T11:17:44.796Z,7.80
2023-03-16T11:20:28.638Z,7.80
2023-03-16T11:22:56.389Z,7.70
2023-03-16T11:25:33.741Z,7.60
2023-03-16T11:28:13.342Z,7.60
2023-03-16T11:30:43.841Z,7.60
2023-03-16T11:33:14.100Z,7.60
2023-03-16T11:36:12.565Z,7.70
2023-03-16T11:38:49.031Z,7.70
2023-03-16T11:41:25.862Z,7.80
2023-03-16T11:43:53.677Z,7.90
2023-03-16T11:46:31.987Z,7.90
2023-03-16T11:50:07.655Z,8.00
2023-03-16T11:52:54.948Z,8.10
2023-03-16T11:55:40.988Z,8.30
2023-03-16T11:58:25.096Z,12.50
2023-03-16T12:00:59.605Z,14.50
2023-03-16T12:03:40.877Z,14.50
2023-03-16T12:06:23.964Z,14.00
2023-03-16T12:09:08.488Z,13.00
2023-03-16T12:11:42.366Z,12.10
2023-03-16T12:14:16.519Z,11.40
2023-03-16T12:16:49.390Z,11.00
2023-03-16T12:19:36.251Z,10.70
2023-03-16T12:22:08.740Z,10.40
2023-03-16T12:24:42.557Z,10.20
2023-03-16T12:27:17.632Z,10.10
2023-03-16T12:29:51.700Z,10.10
2023-03-16T12:32:32.016Z,10.10
2023-03-16T12:35:28.381Z,10.10
2023-03-16T12:37:58.826Z,10.20
2023-03-16T12:40:53.998Z,10.20
2023-03-16T12:43:27.151Z,10.20
2023-03-16T12:46:07.047Z,10.20
2023-03-16T12:48:56.458Z,10.20
2023-03-16T12:51:40.674Z,10.40
2023-03-16T12:54:25.223Z,10.50
2023-03-16T12:56:56.066Z,10.60
2023-03-16T12:59:24.449Z,10.60
2023-03-16T13:01:58.288Z,10.60
2023-03-16T13:04:34.028Z,10.60
2023-03-16T13:07:05.103Z,10.60
2023-03-16T13:09:35.251Z,10.60
2023-03-16T13:12:06.684Z,10.50
2023-03-16T13:14:38.534Z,10.60
2023-03-16T13:17:17.956Z,10.60
2023-03-16T13:19:47.991Z,10.70
2023-03-16T13:22:20.992Z,10.80
2023-03-16T13:25:11.972Z,10.90
2023-03-16T13:27:39.666Z,10.90
2023-03-16T13:30:20.635Z,10.90
2023-03-16T13:32:49.507Z,10.90
2023-03-16T13:35:17.390Z,11.00
2023-03-16T13:37:44.820Z,11.00
2023-03-16T13:40:30.592Z,11.10
2023-03-16T13:42:58.435Z,11.30
2023-03-16T13:45:32.762Z,11.30
2023-03-16T13:48:00.453Z,11.30
2023-03-16T13:50:28.066Z,11.40
2023-03-16T13:52:59.684Z,11.40
2023-03-16T13:55:33.205Z,11.40
2023-03-16T13:58:01.791Z,11.30
2023-03-16T14:00:34.729Z,11.30
2023-03-16T14:03:09.345Z,11.40
2023-03-16T14:05:36.770Z,11.40
2023-03-16T14:08:05.095Z,11.40
2023-03-16T14:10:36.124Z,11.40
2023-03-16T14:13:10.290Z,11.50
2023-03-16T14:15:38.665Z,11.60
2023-03-16T14:18:19.055Z,11.60
2023-03-16T14:20:46.395Z,11.70
2023-03-16T14:23:24.811Z,11.60
2023-03-16T14:25:53.513Z,11.70
2023-03-16T14:28:33.726Z,11.70
2023-03-16T14:31:18.528Z,11.80
2023-03-16T14:33:46.151Z,11.80
2023-03-16T14:36:18.740Z,11.80
2023-03-16T14:38:48.449Z,11.80
2023-03-16T14:41:26.354Z,11.80
2023-03-16T14:43:58.110Z,11.80
2023-03-16T14:46:28.628Z,11.80
2023-03-16T14:49:03.547Z,11.90
2023-03-16T14:51:32.014Z,12.00
2023-03-16T14:53:59.403Z,12.00
2023-03-16T14:56:33.984Z,12.00
2023-03-16T14:59:01.678Z,12.00
2023-03-16T15:01:29.024Z,12.00
2023-03-16T15:03:56.616Z,12.00
2023-03-16T15:06:24.384Z,12.00
2023-03-16T15:08:51.725Z,12.00
2023-03-16T15:11:21.592Z,12.00
2023-03-16T15:13:48.940Z,12.00
2023-03-16T15:16:16.400Z,12.00
2023-03-16T15:18:44.254Z,12.00
2023-03-16T15:21:20.864Z,12.00
2023-03-16T15:23:48.294Z,12.00
2023-03-16T15:26:17.120Z,12.00
2023-03-16T15:28:44.472Z,12.00
2023-03-16T15:31:12.782Z,12.00
2023-03-16T15:33:41.198Z,11.90
2023-03-16T15:36:26.758Z,11.90
2023-03-16T15:38:54.700Z,11.80
2023-03-16T15:41:22.660Z,11.80
2023-03-16T15:43:52.638Z,11.80
2023-03-16T15:46:20.815Z,11.80
2023-03-16T15:48:48.238Z,11.80
2023-03-16T15:51:28.434Z,11.80
2023-03-16T15:54:00.120Z,11.80
2023-03-16T15:56:36.632Z,11.80
2023-03-16T15:59:12.071Z,11.80
2023-03-16T16:01:47.618Z,11.80
2023-03-16T16:04:20.285Z,11.70
2023-03-16T16:06:48.300Z,11.60
2023-03-16T16:09:15.888Z,11.50
2023-03-16T16:11:43.497Z,11.40
2023-03-16T16:14:23.796Z,11.40
2023-03-16T16:16:51.582Z,11.30
2023-03-16T16:19:19.025Z,11.30
2023-03-16T16:21:47.495Z,11.20
2023-03-16T16:24:15.673Z,11.10
2023-03-16T16:26:52.818Z,11.00
2023-03-16T16:29:27.450Z,11.00
2023-03-16T16:31:55.292Z,11.00
2023-03-16T16:34:24.785Z,10.90
2023-03-16T16:36:53.451Z,10.90
2023-03-16T16:39:21.168Z,10.90
2023-03-16T16:41:49.969Z,10.80
2023-03-16T16:44:21.431Z,10.80
2023-03-16T16:46:49.365Z,10.70
2023-03-16T16:49:21.230Z,10.70
2023-03-16T16:51:48.600Z,10.60
2023-03-16T16:54:22.720Z,10.60
2023-03-16T16:56:51.862Z,10.50
2023-03-16T16:59:26.340Z,10.50
2023-03-16T17:01:59.382Z,10.40
2023-03-16T17:04:28.316Z,10.30
2023-03-16T17:06:58.884Z,10.30
2023-03-16T17:09:27.231Z,10.20
2023-03-16T17:11:56.201Z,10.20
2023-03-16T17:14:28.303Z,10.20
2023-03-16T17:16:55.945Z,10.10
2023-03-16T17:19:27.818Z,10.10
2023-03-16T17:21:57.408Z,10.00
2023-03-16T17:24:25.063Z,10.00
2023-03-16T17:26:59.140Z,9.90
2023-03-16T17:29:31.507Z,9.90
2023-03-16T17:32:01.029Z,9.80
2023-03-16T17:34:29.022Z,9.80
2023-03-16T17:36:56.572Z,9.70
2023-03-16T17:39:29.116Z,9.70
2023-03-16T17:42:01.363Z,9.70
2023-03-16T17:44:39.816Z,9.70
2023-03-16T17:47:21.414Z,9.70
2023-03-16T17:49:49.096Z,9.60
2023-03-16T17:52:21.524Z,9.50
2023-03-16T17:54:49.294Z,9.50
2023-03-16T17:57:18.132Z,9.40
2023-03-16T17:59:46.419Z,9.40
2023-03-16T18:02:40.080Z,9.40
2023-03-16T18:05:29.853Z,9.30
2023-03-16T18:08:20.476Z,9.30
2023-03-16T18:10:49.980Z,9.30
2023-03-16T18:13:23.394Z,9.20
2023-03-16T18:15:51.048Z,9.20
2023-03-16T18:18:26.345Z,9.10
2023-03-16T18:20:56.183Z,9.10
2023-03-16T18:23:24.333Z,9.10
2023-03-16T18:25:52.812Z,9.10
2023-03-16T18:28:20.612Z,9.00
2023-03-16T18:30:51.986Z,9.00
2023-03-16T18:33:25.257Z,9.00
2023-03-16T18:35:53.594Z,8.90
2023-03-16T18:38:29.745Z,8.90
2023-03-16T18:41:02.031Z,8.90
2023-03-16T18:43:29.768Z,8.90
2023-03-16T18:45:57.188Z,8.80
2023-03-16T18:48:34.826Z,8.70
2023-03-16T18:51:02.203Z,8.70
2023-03-16T18:53:29.621Z,8.70
2023-03-16T18:55:57.686Z,8.70
2023-03-16T18:58:25.346Z,8.70
2023-03-16T19:00:59.576Z,8.70
2023-03-16T19:03:33.280Z,8.70
2023-03-16T19:06:01.085Z,8.70
2023-03-16T19:08:28.912Z,8.70
2023-03-16T19:11:01.268Z,8.60
2023-03-16T19:13:28.715Z,8.60
2023-03-16T19:15:57.372Z,8.50
2023-03-16T19:18:26.142Z,8.50
2023-03-16T19:20:53.776Z,8.50
2023-03-16T19:23:35.254Z,8.40
2023-03-16T19:26:02.955Z,8.40
2023-03-16T19:28:37.323Z,8.40
2023-03-16T19:31:14.374Z,8.40
2023-03-16T19:33:41.663Z,8.40
2023-03-16T19:36:28.238Z,8.30
2023-03-16T19:38:56.021Z,8.30
2023-03-16T19:41:28.558Z,8.30
2023-03-16T19:43:58.055Z,8.30
2023-03-16T19:46:28.674Z,8.30
2023-03-16T19:48:56.627Z,8.20
2023-03-16T19:51:25.944Z,8.20
2023-03-16T19:53:53.347Z,8.10
2023-03-16T19:56:21.519Z,8.10
2023-03-16T19:58:50.675Z,8.10
2023-03-16T20:01:19.740Z,8.10
2023-03-16T20:03:47.804Z,8.00
2023-03-16T20:06:16.688Z,8.00
2023-03-16T20:08:44.533Z,8.00
2023-03-16T20:11:18.637Z,8.10
2023-03-16T20:13:46.801Z,8.00
2023-03-16T20:16:21.400Z,8.00
2023-03-16T20:18:49.465Z,7.90
2023-03-16T20:21:16.878Z,7.90
2023-03-16T20:23:44.250Z,7.90
2023-03-16T20:26:17.038Z,7.90
2023-03-16T20:28:44.464Z,7.80
2023-03-16T20:31:23.110Z,7.80
2023-03-16T20:33:51.959Z,7.80
2023-03-16T20:36:20.671Z,7.80
2023-03-16T20:38:48.200Z,7.80
2023-03-16T20:41:27.723Z,7.80
2023-03-16T20:43:55.693Z,7.70
2023-03-16T20:46:27.886Z,7.70
2023-03-16T20:48:55.773Z,7.70
2023-03-16T20:51:23.531Z,7.70
2023-03-16T20:53:51.322Z,7.70
2023-03-16T20:56:20.172Z,7.70
2023-03-16T20:58:49.800Z,7.70
2023-03-16T21:01:21.556Z,7.60
2023-03-16T21:03:52.036Z,7.60
2023-03-16T21:06:27.241Z,7.60
2023-03-16T21:08:59.033Z,7.60
2023-03-16T21:11:32.448Z,7.60
2023-03-16T21:13:59.755Z,7.60
2023-03-16T21:16:27.529Z,7.60
2023-03-16T21:18:54.867Z,7.50
2023-03-16T21:21:22.322Z,7.50
2023-03-16T21:23:49.645Z,7.50
2023-03-16T21:26:23.914Z,7.50
2023-03-16T21:28:55.010Z,7.50
2023-03-16T21:31:22.853Z,7.50
2023-03-16T21:33:51.325Z,7.40
2023-03-16T21:36:20.241Z,7.40
2023-03-16T21:38:47.903Z,7.40
2023-03-16T21:41:16.758Z,7.40
2023-03-16T21:43:44.157Z,7.30
2023-03-16T21:46:17.083Z,7.30
2023-03-16T21:48:44.793Z,7.30
2023-03-16T21:51:24.858Z,7.30
2023-03-16T21:53:53.401Z,7.30
2023-03-16T21:56:22.906Z,7.30
2023-03-16T21:58:50.452Z,7.30
2023-03-16T22:01:31.568Z,7.20
2023-03-16T22:04:03.788Z,7.20
2023-03-16T22:06:31.338Z,7.10
2023-03-16T22:08:59.603Z,7.10
2023-03-16T22:11:28.755Z,7.10
2023-03-16T22:13:57.205Z,7.00
2023-03-16T22:16:30.103Z,7.00
2023-03-16T22:18:58.026Z,7.00
2023-03-16T22:21:29.286Z,7.00
2023-03-16T22:23:57.104Z,7.00
2023-03-16T22:26:24.472Z,6.90
2023-03-16T22:28:52.470Z,6.90
2023-03-16T22:31:28.948Z,6.80
2023-03-16T22:33:56.267Z,6.80
2023-03-16T22:36:23.576Z,6.80
2023-03-16T22:38:56.073Z,6.70
2023-03-16T22:41:23.434Z,6.70
2023-03-16T22:43:50.789Z,6.70
2023-03-16T22:46:23.475Z,6.70
2023-03-16T22:48:52.433Z,6.70
2023-03-16T22:51:24.109Z,6.60
2023-03-16T22:53:54.076Z,6.60
2023-03-16T22:56:21.590Z,6.60
2023-03-16T22:58:51.891Z,6.60
2023-03-16T23:01:20.370Z,6.60
2023-03-16T23:03:49.569Z,6.50
2023-03-16T23:06:20.409Z,6.50
2023-03-16T23:08:48.110Z,6.50
2023-03-16T23:11:28.465Z,6.40
2023-03-16T23:13:56.081Z,6.40
2023-03-16T23:16:33.223Z,6.40
2023-03-16T23:19:00.645Z,6.40
2023-03-16T23:21:28.813Z,6.30
2023-03-16T23:24:03.459Z,6.20
2023-03-16T23:26:31.776Z,6.20
2023-03-16T23:28:59.672Z,6.20
2023-03-16T23:31:27.234Z,6.10
2023-03-16T23:33:54.647Z,6.10
2023-03-16T23:36:23.245Z,6.10
2023-03-16T23:38:50.686Z,6.10
2023-03-16T23:41:22.579Z,6.10
2023-03-16T23:43:49.911Z,6.00
2023-03-16T23:46:18.626Z,5.90
2023-03-16T23:48:46.286Z,5.90
2023-03-16T23:51:22.006Z,5.90
2023-03-16T23:53:49.590Z,5.90
2023-03-16T23:56:16.942Z,5.90
2023-03-16T23:58:44.290Z,5.80
